ADDS METAR Data INFO
IDs: Format: Raw Decoded Include TAF

Data at: 0839 UTC 27 Jun 2017

KHSG 270815Z AUTO 28014KT 10SM CLR 18/05 A2985 RMK AO2 T01830045
KHSG 270755Z AUTO 28014KT 10SM CLR 21/03 A2985 RMK AO2 T02100031
KHSG 270735Z AUTO 28012KT 10SM CLR 20/04 A2986 RMK AO2 T01970036
KHSG 270715Z AUTO 28012KT 10SM CLR 20/04 A2986 RMK AO2 T01950035
KHSG 270655Z AUTO 28012KT 10SM CLR 20/03 A2987 RMK AO2 T01970032 403250081
KHSG 270635Z AUTO 27011KT 10SM CLR 21/03 A2987 RMK AO2 T02100030
KHSG 270615Z AUTO 27012KT 10SM CLR 20/03 A2988 RMK AO2 T02000032
KHSG 270555Z AUTO 28012KT 10SM CLR 21/03 A2988 RMK AO2 LTG DSNT NW T02110032 10318 20161
KHSG 270535Z AUTO 28012KT 10SM CLR 20/04 A2989 RMK AO2 T02010037
KHSG 270515Z AUTO 27011KT 10SM CLR 19/04 A2989 RMK AO2 T01930039
KHSG 270455Z AUTO 28011G17KT 10SM CLR 18/05 A2990 RMK AO2 T01830046
KHSG 270435Z AUTO 28012G18KT 10SM CLR 19/04 A2990 RMK AO2 T01850043
KHSG 270415Z AUTO 27014KT 10SM CLR 17/05 A2990 RMK AO2 T01650046
KHSG 270355Z AUTO 27006KT 10SM CLR 17/04 A2991 RMK AO2 T01710044
KHSG 270335Z AUTO 27008G14KT 10SM CLR 20/03 A2991 RMK AO2 T01960026
KHSG 270315Z AUTO 27007KT 10SM CLR 21/02 A2991 RMK AO2 T02110022
KHSG 270255Z AUTO 24005KT 10SM CLR 21/05 A2991 RMK AO2 T02140046
KHSG 270235Z AUTO 27003KT 10SM CLR 22/06 A2991 RMK AO2 T02150058
KHSG 270215Z AUTO 22005KT 10SM CLR 26/02 A2991 RMK AO2 T02620022
KHSG 270155Z AUTO 22005KT 10SM CLR 28/03 A2992 RMK AO2 T02840033
KHSG 270135Z AUTO 21007G19KT 10SM CLR 29/02 A2993 RMK AO2 T02930019
KHSG 270115Z AUTO 18007G18KT 10SM CLR 30/02 A2993 RMK AO2 T02980017
KHSG 270055Z AUTO 19009G19KT 10SM CLR 30/01 A2993 RMK AO2 T02950008
KHSG 270035Z AUTO 19011G20KT 10SM CLR 30/00 A2994 RMK AO2 T03000000
KHSG 270015Z AUTO 19012G22KT 10SM CLR 32/00 A2994 RMK AO2 T03160001
KHSG 262355Z AUTO 21008G23KT 10SM CLR 32/01 A2995 RMK AO2 T03190006 10325 20279
KHSG 262335Z AUTO 18013G21KT 10SM CLR 31/01 A2997 RMK AO2 T03060009
KHSG 262315Z AUTO 20014G22KT 10SM CLR 32/01 A2998 RMK AO2 T03150009
KHSG 262255Z AUTO 17015G24KT 10SM CLR 32/00 A2998 RMK AO2 T03180000
KHSG 262235Z AUTO 17014G23KT 10SM CLR 32/M01 A3000 RMK AO2 LTG DSNT NW T03201008
KHSG 262215Z AUTO 20016G22KT 10SM CLR 32/M02 A3001 RMK AO2 T03211024
KHSG 262155Z AUTO 18014G22KT 10SM CLR 32/M01 A3002 RMK AO2 T03211010
KHSG 262135Z AUTO 18015G22KT 10SM CLR 32/M03 A3003 RMK AO2 T03221027
KHSG 262115Z AUTO 19016G23KT 10SM CLR 32/M03 A3004 RMK AO2 T03211027
KHSG 262055Z AUTO 16014G22KT 10SM CLR 32/00 A3005 RMK AO2 T03161001
KHSG 262035Z AUTO 16015G21KT 10SM CLR 32/01 A3006 RMK AO2 T03150008
KHSG 262015Z AUTO 17011G21KT 10SM CLR 31/02 A3007 RMK AO2 T03100020
KHSG 261955Z AUTO 18016G22KT 10SM CLR 31/03 A3008 RMK AO2 T03050029
KHSG 261935Z AUTO 18015G21KT 10SM CLR 30/04 A3009 RMK AO2 T03030035
KHSG 261915Z AUTO 17010G19KT 10SM CLR 30/01 A3010 RMK AO2 T02960012
KHSG 261855Z AUTO 17010G20KT 10SM CLR 29/02 A3011 RMK AO2 T02920020
KHSG 261835Z AUTO 18012G21KT 10SM CLR 29/03 A3012 RMK AO2 T02860027
KHSG 261815Z AUTO 19013G20KT 10SM CLR 29/03 A3013 RMK AO2 T02850032
KHSG 261755Z AUTO 14005KT 10SM CLR 28/03 A3014 RMK AO2 T02800029 10280 20102
KHSG 261735Z AUTO 14003KT 10SM CLR 27/03 A3015 RMK AO2 T02710033
KHSG 261715Z AUTO 16007KT 10SM CLR 27/04 A3016 RMK AO2 T02660037
KHSG 261655Z AUTO 11006KT 10SM CLR 26/04 A3016 RMK AO2 T02590044
KHSG 261635Z AUTO 20006KT 10SM CLR 25/04 A3017 RMK AO2 T02490040
KHSG 261615Z AUTO 13004G14KT 10SM CLR 24/05 A3018 RMK AO2 T02430049
KHSG 261555Z AUTO 16006KT 10SM CLR 23/05 A3019 RMK AO2 T02340046
KHSG 261535Z AUTO 19004KT 10SM CLR 23/05 A3019 RMK AO2 T02270049
KHSG 261515Z AUTO 17005KT 10SM CLR 22/05 A3020 RMK AO2 T02200046
KHSG 261455Z AUTO 19003KT 10SM CLR 21/04 A3020 RMK AO2 T02080041
KHSG 261435Z AUTO 00000KT 10SM CLR 20/04 A3021 RMK AO2 T02000037
KHSG 261415Z AUTO 28003KT 10SM CLR 19/04 A3021 RMK AO2 T01910035
KHSG 261355Z AUTO 30004KT 10SM CLR 18/03 A3021 RMK AO2 T01810030
KHSG 261335Z AUTO 29003KT 10SM CLR 17/04 A3022 RMK AO2 T01700035
KHSG 261315Z AUTO 29005KT 10SM CLR 16/04 A3022 RMK AO2 T01580035
KHSG 261255Z AUTO 30003KT 10SM CLR 15/04 A3022 RMK AO2 T01450042
KHSG 261235Z AUTO 30004KT 10SM CLR 12/04 A3022 RMK AO2 T01160039
KHSG 261215Z AUTO 00000KT 10SM CLR 11/03 A3022 RMK AO2 T01080026
KHSG 261155Z AUTO 16003KT 10SM CLR 11/02 A3022 RMK AO2 T01120021 10132 20081
KHSG 261135Z AUTO 18003KT 10SM CLR 12/02 A3022 RMK AO2 T01210023
KHSG 261115Z AUTO 21005G14KT 10SM CLR 12/03 A3022 RMK AO2 T01240025
KHSG 261055Z AUTO 20007KT 10SM CLR 12/03 A3023 RMK AO2 T01240026
KHSG 261035Z AUTO 20007KT 10SM CLR 13/03 A3023 RMK AO2 T01290029
KHSG 261015Z AUTO 16004KT 10SM CLR 11/03 A3023 RMK AO2 T01110028
KHSG 260955Z AUTO 21004KT 10SM CLR 11/03 A3023 RMK AO2 T01080025
KHSG 260935Z AUTO 23007KT 10SM CLR 13/02 A3023 RMK AO2 T01310024
KHSG 260915Z AUTO 24006KT 10SM CLR 11/02 A3024 RMK AO2 T01090024
KHSG 260855Z AUTO 26006KT 10SM CLR 11/02 A3025 RMK AO2 T01140020
KHSG 260835Z AUTO 27007G15KT 10SM CLR 11/03 A3025 RMK AO2 T01070030
KHSG 260815Z AUTO 27008KT 10SM CLR 13/02 A3026 RMK AO2 T01250024
KHSG 260755Z AUTO 24007G15KT 10SM CLR 12/03 A3026 RMK AO2 T01150028
KHSG 260735Z AUTO 26011G17KT 10SM CLR 11/03 A3027 RMK AO2 T01080029
KHSG 260715Z AUTO 21006KT 10SM CLR 09/03 A3028 RMK AO2 T00880027
KHSG 260655Z AUTO 13004KT 10SM CLR 11/02 A3027 RMK AO2 T01070020 402630053
KHSG 260635Z AUTO 27003KT 10SM CLR 10/03 A3027 RMK AO2 T00980031
KHSG 260615Z AUTO 28006KT 10SM CLR 10/04 A3027 RMK AO2 T01000035
KHSG 260555Z AUTO 28008KT 10SM CLR 14/02 A3027 RMK AO2 T01370017 10259 20097
KHSG 260535Z AUTO 31005KT 10SM CLR 16/01 A3027 RMK AO2 T01620011
KHSG 260515Z AUTO 29003KT 10SM CLR 11/03 A3027 RMK AO2 T01140033
KHSG 260455Z AUTO 27009KT 10SM CLR 11/04 A3027 RMK AO2 T01110039
KHSG 260435Z AUTO 27010KT 10SM CLR 13/03 A3026 RMK AO2 T01330025
KHSG 260415Z AUTO 28009KT 10SM CLR 12/04 A3026 RMK AO2 T01170035
KHSG 260355Z AUTO 27008KT 10SM CLR 13/04 A3026 RMK AO2 T01270039
KHSG 260335Z AUTO 21004KT 10SM CLR 14/02 A3026 RMK AO2 T01430020
KHSG 260315Z AUTO 00000KT 10SM CLR 17/01 A3025 RMK AO2 T01740007
KHSG 260255Z AUTO 05004KT 10SM CLR 18/02 A3024 RMK AO2 T01790018
KHSG 260235Z AUTO 06004KT 10SM CLR 21/01 A3025 RMK AO2 T02060014
KHSG 260215Z AUTO 05004KT 10SM CLR 22/02 A3024 RMK AO2 T02180015
KHSG 260155Z AUTO 07005KT 10SM CLR 23/02 A3024 RMK AO2 T02280017
KHSG 260135Z AUTO 04004KT 10SM CLR 24/02 A3024 RMK AO2 T02400016
KHSG 260115Z AUTO 08004KT 10SM CLR 24/02 A3023 RMK AO2 T02440015
KHSG 260055Z AUTO 05007KT 10SM CLR 25/01 A3023 RMK AO2 T02500013
KHSG 260035Z AUTO 08007KT 10SM SCT100 25/02 A3023 RMK AO2 T02500018
KHSG 260015Z AUTO 11006KT 10SM CLR 25/02 A3023 RMK AO2 T02520018
KHSG 252355Z AUTO 07006KT 10SM CLR 26/02 A3024 RMK AO2 T02600023 10263 20214
KHSG 252335Z AUTO 18007G14KT 10SM CLR 26/02 A3024 RMK AO2 T02610022
KHSG 252315Z AUTO 14003KT 10SM CLR 26/02 A3025 RMK AO2 T02550016
KHSG 252255Z AUTO 27006KT 10SM CLR 26/01 A3025 RMK AO2 T02600012
KHSG 252235Z AUTO 00000KT 10SM CLR 25/01 A3025 RMK AO2 T02540011
KHSG 252215Z AUTO 13005KT 10SM CLR 25/02 A3025 RMK AO2 T02540015
KHSG 252155Z AUTO 13003KT 10SM CLR 25/02 A3026 RMK AO2 T02530015
KHSG 252135Z AUTO 10005G14KT 10SM CLR 25/02 A3027 RMK AO2 T02540018
KHSG 252115Z AUTO 07007KT 10SM CLR 26/02 A3027 RMK AO2 T02590019
KHSG 252055Z AUTO 14006KT 10SM CLR 25/02 A3027 RMK AO2 T02490018


Page loaded:  08:39 UTC  |   01:39 AM Pacific  |   02:39 AM Mountain  |   03:39 AM Central  |   04:39 AM Eastern

 

ADVISORIES

FORECASTS

FORECASTS

OBSERVATIONS

USER TOOLS

ABOUT US